createdAt,value
2023-01-08T00:00:48.308Z,56.37
2023-01-08T00:01:48.098Z,56.27
2023-01-08T00:02:48.314Z,56.46
2023-01-08T00:03:48.545Z,56.27
2023-01-08T00:04:48.147Z,56.27
2023-01-08T00:05:49.268Z,56.37
2023-01-08T00:06:48.133Z,56.27
2023-01-08T00:07:48.049Z,56.27
2023-01-08T00:08:48.051Z,56.27
2023-01-08T00:09:48.188Z,56.27
2023-01-08T00:10:48.058Z,56.27
2023-01-08T00:11:48.158Z,56.37
2023-01-08T00:12:48.161Z,56.37
2023-01-08T00:13:48.849Z,56.27
2023-01-08T00:14:47.969Z,56.27
2023-01-08T00:15:48.410Z,56.39
2023-01-08T00:16:47.993Z,56.27
2023-01-08T00:17:47.981Z,56.07
2023-01-08T00:18:48.111Z,55.97
2023-01-08T00:19:48.454Z,55.97
2023-01-08T00:20:47.986Z,55.97
2023-01-08T00:21:48.359Z,55.97
2023-01-08T00:22:47.896Z,55.97
2023-01-08T00:23:47.844Z,55.87
2023-01-08T00:24:47.836Z,55.87
2023-01-08T00:25:48.553Z,55.87
2023-01-08T00:26:47.820Z,55.87
2023-01-08T00:27:48.499Z,55.87
2023-01-08T00:28:47.763Z,55.87
2023-01-08T00:29:47.790Z,55.77
2023-01-08T00:30:48.653Z,55.77
2023-01-08T00:31:47.749Z,55.77
2023-01-08T00:32:47.789Z,55.77
2023-01-08T00:33:47.896Z,55.66
2023-01-08T00:34:47.706Z,55.77
2023-01-08T00:35:47.717Z,55.77
2023-01-08T00:36:47.828Z,55.77
2023-01-08T00:37:47.625Z,55.77
2023-01-08T00:38:47.630Z,55.87
2023-01-08T00:39:48.783Z,55.97
2023-01-08T00:40:47.603Z,56.04
2023-01-08T00:41:47.964Z,55.84
2023-01-08T00:42:49.404Z,55.74
2023-01-08T00:43:47.949Z,55.64
2023-01-08T00:44:47.561Z,55.54
2023-01-08T00:45:48.111Z,55.54
2023-01-08T00:46:47.759Z,55.54
2023-01-08T00:47:47.495Z,55.44
2023-01-08T00:48:47.726Z,55.44
2023-01-08T00:49:48.676Z,55.44
2023-01-08T00:50:47.551Z,55.44
2023-01-08T00:51:48.368Z,55.44
2023-01-08T00:52:48.272Z,55.47
2023-01-08T00:53:47.716Z,55.44
2023-01-08T00:54:48.755Z,55.44
2023-01-08T00:55:48.247Z,55.47
2023-01-08T00:56:47.483Z,55.47
2023-01-08T00:57:47.662Z,55.47
2023-01-08T00:58:47.522Z,55.47
2023-01-08T00:59:47.414Z,55.47
2023-01-08T01:00:47.349Z,55.47
2023-01-08T01:01:47.357Z,55.36
2023-01-08T01:02:47.279Z,55.36
2023-01-08T01:03:48.005Z,55.47
2023-01-08T01:04:47.280Z,55.36
2023-01-08T01:05:47.276Z,55.36
2023-01-08T01:06:48.542Z,55.36
2023-01-08T01:07:47.232Z,55.47
2023-01-08T01:08:47.420Z,55.47
2023-01-08T01:09:47.311Z,55.36
2023-01-08T01:10:47.208Z,55.36
2023-01-08T01:11:47.222Z,55.36
2023-01-08T01:12:47.165Z,55.36
2023-01-08T01:13:47.897Z,55.36
2023-01-08T01:14:47.189Z,55.36
2023-01-08T01:15:47.259Z,55.36
2023-01-08T01:16:49.804Z,55.36
2023-01-08T01:17:47.806Z,55.36
2023-01-08T01:18:47.126Z,55.36
2023-01-08T01:19:47.100Z,55.27
2023-01-08T01:20:47.092Z,55.27
2023-01-08T01:21:47.173Z,55.27
2023-01-08T01:22:47.028Z,55.27
2023-01-08T01:23:47.213Z,55.36
2023-01-08T01:24:47.010Z,55.36
2023-01-08T01:25:47.164Z,55.36
2023-01-08T01:26:46.947Z,55.47
2023-01-08T01:27:47.168Z,55.47
2023-01-08T01:28:47.053Z,55.36
2023-01-08T01:29:48.257Z,55.36
2023-01-08T01:30:46.952Z,55.27
2023-01-08T01:31:47.083Z,55.27
2023-01-08T01:32:47.044Z,55.27
2023-01-08T01:33:46.882Z,55.17
2023-01-08T01:34:46.880Z,55.17
2023-01-08T01:35:47.020Z,55.17
2023-01-08T01:36:46.893Z,55.27
2023-01-08T01:37:46.763Z,55.17
2023-01-08T01:38:47.086Z,55.17
2023-01-08T01:39:46.820Z,55.17
2023-01-08T01:40:47.443Z,55.17
2023-01-08T01:41:47.018Z,55.17
2023-01-08T01:42:47.488Z,55.17
2023-01-08T01:43:46.844Z,55.17
2023-01-08T01:44:46.820Z,55.17
2023-01-08T01:45:46.703Z,55.17
2023-01-08T01:46:46.658Z,55.17
2023-01-08T01:47:46.690Z,55.17
2023-01-08T01:48:46.697Z,55.17
2023-01-08T01:49:46.625Z,55.07
2023-01-08T01:50:46.788Z,55.17
2023-01-08T01:51:46.823Z,55.17
2023-01-08T01:52:46.636Z,55.17
2023-01-08T01:53:46.805Z,55.17
2023-01-08T01:54:46.607Z,55.07
2023-01-08T01:55:47.357Z,54.97
2023-01-08T01:56:46.842Z,54.97
2023-01-08T01:57:46.547Z,54.86
2023-01-08T01:58:46.658Z,54.86
2023-01-08T01:59:46.549Z,54.86
2023-01-08T02:00:46.549Z,54.86
2023-01-08T02:01:46.901Z,54.86
2023-01-08T02:02:46.712Z,54.86
2023-01-08T02:03:46.474Z,54.90
2023-01-08T02:04:47.535Z,54.86
2023-01-08T02:05:47.208Z,54.90
2023-01-08T02:06:46.509Z,54.90
2023-01-08T02:07:46.436Z,54.90
2023-01-08T02:08:46.617Z,54.90
2023-01-08T02:09:46.404Z,54.90
2023-01-08T02:10:47.139Z,54.90
2023-01-08T02:11:46.361Z,54.90
2023-01-08T02:12:46.431Z,54.90
2023-01-08T02:13:46.335Z,54.90
2023-01-08T02:14:46.693Z,54.79
2023-01-08T02:15:46.328Z,54.79
2023-01-08T02:16:47.042Z,54.90
2023-01-08T02:17:46.389Z,54.90
2023-01-08T02:18:46.336Z,54.90
2023-01-08T02:19:46.202Z,54.90
2023-01-08T02:20:46.308Z,54.90
2023-01-08T02:21:46.363Z,54.90
2023-01-08T02:22:46.217Z,54.90
2023-01-08T02:23:46.174Z,54.90
2023-01-08T02:24:46.148Z,54.90
2023-01-08T02:25:46.171Z,54.90
2023-01-08T02:26:48.643Z,54.90
2023-01-08T02:27:46.140Z,54.90
2023-01-08T02:28:46.117Z,54.90
2023-01-08T02:29:46.217Z,54.90
2023-01-08T02:30:46.197Z,54.90
2023-01-08T02:31:46.030Z,54.90
2023-01-08T02:32:46.167Z,54.90
2023-01-08T02:33:46.887Z,54.90
2023-01-08T02:34:46.125Z,54.90
2023-01-08T02:35:46.429Z,54.90
2023-01-08T02:36:46.108Z,54.90
2023-01-08T02:37:46.699Z,54.90
2023-01-08T02:38:46.307Z,54.90
2023-01-08T02:39:45.976Z,54.90
2023-01-08T02:40:46.010Z,54.90
2023-01-08T02:41:46.022Z,54.90
2023-01-08T02:42:45.902Z,54.90
2023-01-08T02:43:45.916Z,54.90
2023-01-08T02:44:46.035Z,54.90
2023-01-08T02:45:45.945Z,54.90
2023-01-08T02:46:45.842Z,54.90
2023-01-08T02:47:46.409Z,54.92
2023-01-08T02:48:45.924Z,54.92
2023-01-08T02:49:45.841Z,54.92
2023-01-08T02:50:46.303Z,55.02
2023-01-08T02:51:45.872Z,55.02
2023-01-08T02:52:46.574Z,54.92
2023-01-08T02:53:45.784Z,54.90
2023-01-08T02:54:45.896Z,55.02
2023-01-08T02:55:46.654Z,54.92
2023-01-08T02:56:47.386Z,55.02
2023-01-08T02:57:46.937Z,54.92
2023-01-08T02:58:45.693Z,55.02
2023-01-08T02:59:46.040Z,54.92
2023-01-08T03:00:45.659Z,54.92
2023-01-08T03:01:45.901Z,55.02
2023-01-08T03:02:45.798Z,55.02
2023-01-08T03:03:45.801Z,55.02
2023-01-08T03:04:45.609Z,55.02
2023-01-08T03:05:45.635Z,55.02
2023-01-08T03:06:46.337Z,55.02
2023-01-08T03:07:45.532Z,55.02
2023-01-08T03:08:45.789Z,55.02
2023-01-08T03:09:45.498Z,55.02
2023-01-08T03:10:45.512Z,55.02
2023-01-08T03:11:46.250Z,55.02
2023-01-08T03:12:45.609Z,55.02
2023-01-08T03:13:45.446Z,55.02
2023-01-08T03:14:45.897Z,55.02
2023-01-08T03:15:45.497Z,55.02
2023-01-08T03:16:45.485Z,55.02
2023-01-08T03:17:45.515Z,55.02
2023-01-08T03:18:45.420Z,55.02
2023-01-08T03:19:45.363Z,55.02
2023-01-08T03:20:45.643Z,55.02
2023-01-08T03:21:46.105Z,55.12
2023-01-08T03:22:45.361Z,55.12
2023-01-08T03:23:45.354Z,55.12
2023-01-08T03:24:45.355Z,55.02
2023-01-08T03:25:45.493Z,55.02
2023-01-08T03:26:45.416Z,55.02
2023-01-08T03:27:46.403Z,55.02
2023-01-08T03:28:45.276Z,55.12
2023-01-08T03:29:45.429Z,55.12
2023-01-08T03:30:45.382Z,55.12
2023-01-08T03:31:45.199Z,55.02
2023-01-08T03:32:45.628Z,55.12
2023-01-08T03:33:45.243Z,55.02
2023-01-08T03:34:45.235Z,55.02
2023-01-08T03:35:45.238Z,55.02
2023-01-08T03:36:45.250Z,55.12
2023-01-08T03:37:45.167Z,55.12
2023-01-08T03:38:45.380Z,55.12
2023-01-08T03:39:45.135Z,55.12
2023-01-08T03:40:45.112Z,55.12
2023-01-08T03:41:45.189Z,55.12
2023-01-08T03:42:45.135Z,55.12
2023-01-08T03:43:45.080Z,55.12
2023-01-08T03:44:45.415Z,55.12
2023-01-08T03:45:45.036Z,55.12
2023-01-08T03:46:45.048Z,55.12
2023-01-08T03:47:45.018Z,55.12
2023-01-08T03:48:45.002Z,55.12
2023-01-08T03:49:44.934Z,55.12
2023-01-08T03:50:45.173Z,55.15
2023-01-08T03:51:45.051Z,55.15
2023-01-08T03:52:44.992Z,55.12
2023-01-08T03:53:45.268Z,55.12
2023-01-08T03:54:45.042Z,55.15
2023-01-08T03:55:45.645Z,55.12
2023-01-08T03:56:45.514Z,55.15
2023-01-08T03:57:44.853Z,55.12
2023-01-08T03:58:44.885Z,55.15
2023-01-08T03:59:44.968Z,55.15
2023-01-08T04:00:44.818Z,55.24
2023-01-08T04:01:44.979Z,55.15
2023-01-08T04:02:45.015Z,55.24
2023-01-08T04:03:44.838Z,55.24
2023-01-08T04:04:44.825Z,55.22
2023-01-08T04:05:44.821Z,55.24
2023-01-08T04:06:44.860Z,55.15
2023-01-08T04:07:44.749Z,55.24
2023-01-08T04:08:45.016Z,55.24
2023-01-08T04:09:44.762Z,55.15
2023-01-08T04:10:44.742Z,55.15
2023-01-08T04:11:44.761Z,55.15
2023-01-08T04:12:44.803Z,55.24
2023-01-08T04:13:44.699Z,55.15
2023-01-08T04:14:45.723Z,55.24
2023-01-08T04:15:45.409Z,55.24
2023-01-08T04:16:44.728Z,55.24
2023-01-08T04:17:44.622Z,55.24
2023-01-08T04:18:44.593Z,55.15
2023-01-08T04:19:44.559Z,55.24
2023-01-08T04:20:44.759Z,55.15
2023-01-08T04:21:44.611Z,55.24
2023-01-08T04:22:44.474Z,55.24
2023-01-08T04:23:44.546Z,55.24
2023-01-08T04:24:45.246Z,55.24
2023-01-08T04:25:44.465Z,55.24
2023-01-08T04:26:45.105Z,55.24
2023-01-08T04:27:44.486Z,55.24
2023-01-08T04:28:44.447Z,55.24
2023-01-08T04:29:44.556Z,55.24
2023-01-08T04:30:44.438Z,55.24
2023-01-08T04:31:44.454Z,55.24
2023-01-08T04:32:44.811Z,55.24
2023-01-08T04:33:44.410Z,55.24
2023-01-08T04:34:44.347Z,55.24
2023-01-08T04:35:44.457Z,55.24
2023-01-08T04:36:44.306Z,55.24
2023-01-08T04:37:44.311Z,55.24
2023-01-08T04:38:44.481Z,55.24
2023-01-08T04:39:44.315Z,55.24
2023-01-08T04:40:44.255Z,55.24
2023-01-08T04:41:44.334Z,55.24
2023-01-08T04:42:44.255Z,55.24
2023-01-08T04:43:44.266Z,55.24
2023-01-08T04:44:44.591Z,55.24
2023-01-08T04:45:44.192Z,55.24
2023-01-08T04:46:44.217Z,55.24
2023-01-08T04:47:44.318Z,55.24
2023-01-08T04:48:44.193Z,55.24
2023-01-08T04:49:44.923Z,55.24
2023-01-08T04:50:44.343Z,55.24
2023-01-08T04:51:44.169Z,55.35
2023-01-08T04:52:44.165Z,55.24
2023-01-08T04:53:45.161Z,55.24
2023-01-08T04:54:44.048Z,55.24
2023-01-08T04:55:44.232Z,55.24
2023-01-08T04:56:44.196Z,55.35
2023-01-08T04:57:44.036Z,55.35
2023-01-08T04:58:44.062Z,55.35
2023-01-08T04:59:44.195Z,55.35
2023-01-08T05:00:44.026Z,55.35
2023-01-08T05:01:44.190Z,55.35
2023-01-08T05:02:44.327Z,55.35
2023-01-08T05:03:44.713Z,55.35
2023-01-08T05:04:43.918Z,55.35
2023-01-08T05:05:44.005Z,55.35
2023-01-08T05:06:43.875Z,55.35
2023-01-08T05:07:43.913Z,55.35
2023-01-08T05:08:43.965Z,55.35
2023-01-08T05:09:44.015Z,55.44
2023-01-08T05:10:43.837Z,55.44
2023-01-08T05:11:43.944Z,55.35
2023-01-08T05:12:43.831Z,55.35
2023-01-08T05:13:43.865Z,55.35
2023-01-08T05:14:44.049Z,55.35
2023-01-08T05:15:43.884Z,55.35
2023-01-08T05:16:43.754Z,55.44
2023-01-08T05:17:43.821Z,55.44
2023-01-08T05:18:44.126Z,55.44
2023-01-08T05:19:43.764Z,55.44
2023-01-08T05:20:44.723Z,55.44
2023-01-08T05:21:43.726Z,55.44
2023-01-08T05:22:43.700Z,55.44
2023-01-08T05:23:43.783Z,55.44
2023-01-08T05:24:43.871Z,55.44
2023-01-08T05:25:43.704Z,55.35
2023-01-08T05:26:45.181Z,55.44
2023-01-08T05:27:43.634Z,55.44
2023-01-08T05:28:43.602Z,55.35
2023-01-08T05:29:43.660Z,55.44
2023-01-08T05:30:43.908Z,55.47
2023-01-08T05:31:43.742Z,55.47
2023-01-08T05:32:43.580Z,55.47
2023-01-08T05:33:43.546Z,55.47
2023-01-08T05:34:43.570Z,55.47
2023-01-08T05:35:43.760Z,55.44
2023-01-08T05:36:43.644Z,55.37
2023-01-08T05:37:44.245Z,55.37
2023-01-08T05:38:43.472Z,55.35
2023-01-08T05:39:43.463Z,55.47
2023-01-08T05:40:43.423Z,55.44
2023-01-08T05:41:44.172Z,55.35
2023-01-08T05:42:43.663Z,55.35
2023-01-08T05:43:43.518Z,55.37
2023-01-08T05:44:43.375Z,55.35
2023-01-08T05:45:43.405Z,55.35
2023-01-08T05:46:44.169Z,55.35
2023-01-08T05:47:43.647Z,55.35
2023-01-08T05:48:43.604Z,55.35
2023-01-08T05:49:43.374Z,55.35
2023-01-08T05:50:43.309Z,55.24
2023-01-08T05:51:43.347Z,55.24
2023-01-08T05:52:43.294Z,55.24
2023-01-08T05:53:43.611Z,55.24
2023-01-08T05:54:43.910Z,55.24
2023-01-08T05:55:43.341Z,55.15
2023-01-08T05:56:43.252Z,55.15
2023-01-08T05:57:43.215Z,55.15
2023-01-08T05:58:43.236Z,55.15
2023-01-08T05:59:43.564Z,55.15
2023-01-08T06:00:43.383Z,55.15
2023-01-08T06:01:43.242Z,55.15
2023-01-08T06:02:43.157Z,55.15
2023-01-08T06:03:43.145Z,55.05
2023-01-08T06:04:43.168Z,55.05
2023-01-08T06:05:43.162Z,55.05
2023-01-08T06:06:43.853Z,55.05
2023-01-08T06:07:43.129Z,55.05
2023-01-08T06:08:43.063Z,55.05
2023-01-08T06:09:43.815Z,54.94
2023-01-08T06:10:43.106Z,54.92
2023-01-08T06:11:43.069Z,54.92
2023-01-08T06:12:43.812Z,54.92
2023-01-08T06:13:43.033Z,54.92
2023-01-08T06:14:43.729Z,54.92
2023-01-08T06:15:43.067Z,54.92
2023-01-08T06:16:43.707Z,54.92
2023-01-08T06:17:43.028Z,54.82
2023-01-08T06:18:43.052Z,54.82
2023-01-08T06:19:42.948Z,54.82
2023-01-08T06:20:42.889Z,54.82
2023-01-08T06:21:42.887Z,54.82
2023-01-08T06:22:42.884Z,54.82
2023-01-08T06:23:42.914Z,54.82
2023-01-08T06:24:43.208Z,54.82
2023-01-08T06:25:42.832Z,54.72
2023-01-08T06:26:43.544Z,54.82
2023-01-08T06:27:42.921Z,54.72
2023-01-08T06:28:42.773Z,54.82
2023-01-08T06:29:43.321Z,54.82
2023-01-08T06:30:43.054Z,54.72
2023-01-08T06:31:42.819Z,54.72
2023-01-08T06:32:42.867Z,54.72
2023-01-08T06:33:43.525Z,54.72
2023-01-08T06:34:42.718Z,54.72
2023-01-08T06:35:42.776Z,54.72
2023-01-08T06:36:42.778Z,54.72
2023-01-08T06:37:42.675Z,54.72
2023-01-08T06:38:42.626Z,54.72
2023-01-08T06:39:43.072Z,54.72
2023-01-08T06:40:42.619Z,54.62
2023-01-08T06:41:42.695Z,54.62
2023-01-08T06:42:42.830Z,54.62
2023-01-08T06:43:42.627Z,54.62
2023-01-08T06:44:43.314Z,54.62
2023-01-08T06:45:42.618Z,54.62
2023-01-08T06:46:42.632Z,54.62
2023-01-08T06:47:42.765Z,54.62
2023-01-08T06:48:43.199Z,54.72
2023-01-08T06:49:42.577Z,54.62
2023-01-08T06:50:42.490Z,54.62
2023-01-08T06:51:42.670Z,54.62
2023-01-08T06:52:42.513Z,54.62
2023-01-08T06:53:42.519Z,54.62
2023-01-08T06:54:42.630Z,54.62
2023-01-08T06:55:42.424Z,54.62
2023-01-08T06:56:52.972Z,54.62
2023-01-08T06:57:43.438Z,54.62
2023-01-08T06:58:42.341Z,54.62
2023-01-08T06:59:43.406Z,54.62
2023-01-08T07:00:42.641Z,54.62
2023-01-08T07:01:42.911Z,54.62
2023-01-08T07:02:42.475Z,54.62
2023-01-08T07:03:43.168Z,54.62
2023-01-08T07:04:42.343Z,54.62
2023-01-08T07:05:42.702Z,54.62
2023-01-08T07:06:42.608Z,54.62
2023-01-08T07:07:42.311Z,54.62
2023-01-08T07:08:42.214Z,54.62
2023-01-08T07:09:42.316Z,54.62
2023-01-08T07:10:42.246Z,54.62
2023-01-08T07:11:42.362Z,54.62
2023-01-08T07:12:42.361Z,54.52
2023-01-08T07:13:42.203Z,54.62
2023-01-08T07:14:42.267Z,54.62
2023-01-08T07:15:42.259Z,54.62
2023-01-08T07:16:43.181Z,54.62
2023-01-08T07:17:42.311Z,54.52
2023-01-08T07:18:42.503Z,54.62
2023-01-08T07:19:42.362Z,54.62
2023-01-08T07:20:42.041Z,54.62
2023-01-08T07:21:42.070Z,54.62
2023-01-08T07:22:42.074Z,54.62
2023-01-08T07:23:42.176Z,54.62
2023-01-08T07:24:42.192Z,54.62
2023-01-08T07:25:42.196Z,54.62
2023-01-08T07:26:42.002Z,54.62
2023-01-08T07:27:42.016Z,54.62
2023-01-08T07:28:41.969Z,54.62
2023-01-08T07:29:43.079Z,54.62
2023-01-08T07:30:42.039Z,54.62
2023-01-08T07:31:41.993Z,54.60
2023-01-08T07:32:41.932Z,54.62
2023-01-08T07:33:41.911Z,54.62
2023-01-08T07:34:41.984Z,54.52
2023-01-08T07:35:42.297Z,54.49
2023-01-08T07:36:41.909Z,54.62
2023-01-08T07:37:41.874Z,54.49
2023-01-08T07:38:41.806Z,54.62
2023-01-08T07:39:41.801Z,54.60
2023-01-08T07:40:41.799Z,54.60
2023-01-08T07:41:42.310Z,54.60
2023-01-08T07:42:41.914Z,54.60
2023-01-08T07:43:41.784Z,54.60
2023-01-08T07:44:42.122Z,54.60
2023-01-08T07:45:41.748Z,54.62
2023-01-08T07:46:41.840Z,54.62
2023-01-08T07:47:41.846Z,54.60
2023-01-08T07:48:41.741Z,54.60
2023-01-08T07:49:41.669Z,54.60
2023-01-08T07:50:41.682Z,54.60
2023-01-08T07:51:41.755Z,54.60
2023-01-08T07:52:41.742Z,54.60
2023-01-08T07:53:41.799Z,54.60
2023-01-08T07:54:41.648Z,54.60
2023-01-08T07:55:41.603Z,54.60
2023-01-08T07:56:41.605Z,54.60
2023-01-08T07:57:41.613Z,54.60
2023-01-08T07:58:42.329Z,54.60
2023-01-08T07:59:42.730Z,54.60
2023-01-08T08:00:41.517Z,54.60
2023-01-08T08:01:41.648Z,54.60
2023-01-08T08:02:41.638Z,54.60
2023-01-08T08:03:42.279Z,54.60
2023-01-08T08:04:42.245Z,54.60
2023-01-08T08:05:41.870Z,54.60
2023-01-08T08:06:41.427Z,54.60
2023-01-08T08:07:41.437Z,54.60
2023-01-08T08:08:42.368Z,54.60
2023-01-08T08:09:41.450Z,54.60
2023-01-08T08:10:41.585Z,54.60
2023-01-08T08:11:41.575Z,54.60
2023-01-08T08:12:41.331Z,54.60
2023-01-08T08:13:41.421Z,54.60
2023-01-08T08:14:42.285Z,54.60
2023-01-08T08:15:41.667Z,54.60
2023-01-08T08:16:41.392Z,54.49
2023-01-08T08:17:41.462Z,54.60
2023-01-08T08:18:41.464Z,54.60
2023-01-08T08:19:42.178Z,54.49
2023-01-08T08:20:41.250Z,54.49
2023-01-08T08:21:41.217Z,54.60
2023-01-08T08:22:41.300Z,54.49
2023-01-08T08:23:41.567Z,54.60
2023-01-08T08:24:41.201Z,54.60
2023-01-08T08:25:41.169Z,54.60
2023-01-08T08:26:41.371Z,54.60
2023-01-08T08:27:41.330Z,54.60
2023-01-08T08:28:41.314Z,54.60
2023-01-08T08:29:43.159Z,54.60
2023-01-08T08:30:42.708Z,54.60
2023-01-08T08:31:41.627Z,54.60
2023-01-08T08:32:41.369Z,54.79
2023-01-08T08:33:41.228Z,54.69
2023-01-08T08:34:41.353Z,54.60
2023-01-08T08:35:41.062Z,54.69
2023-01-08T08:36:41.104Z,54.69
2023-01-08T08:37:41.578Z,54.60
2023-01-08T08:38:41.135Z,54.60
2023-01-08T08:39:40.993Z,54.69
2023-01-08T08:40:41.173Z,54.69
2023-01-08T08:41:41.055Z,54.69
2023-01-08T08:42:40.986Z,54.60
2023-01-08T08:43:40.971Z,54.69
2023-01-08T08:44:42.941Z,54.69
2023-01-08T08:45:40.915Z,54.69
2023-01-08T08:46:41.217Z,54.60
2023-01-08T08:47:40.890Z,54.60
2023-01-08T08:48:41.605Z,54.60
2023-01-08T08:49:40.903Z,54.69
2023-01-08T08:50:40.892Z,54.79
2023-01-08T08:51:40.831Z,54.79
2023-01-08T08:52:41.535Z,54.90
2023-01-08T08:53:41.896Z,54.99
2023-01-08T08:54:40.848Z,54.99
2023-01-08T08:55:40.763Z,54.99
2023-01-08T08:56:40.769Z,54.90
2023-01-08T08:57:40.725Z,54.90
2023-01-08T08:58:41.532Z,54.90
2023-01-08T08:59:40.746Z,54.90
2023-01-08T09:00:40.728Z,54.90
2023-01-08T09:01:40.976Z,54.90
2023-01-08T09:02:40.896Z,54.90
2023-01-08T09:03:40.734Z,54.90
2023-01-08T09:04:40.950Z,54.90
2023-01-08T09:05:40.623Z,54.90
2023-01-08T09:06:40.996Z,54.90
2023-01-08T09:07:40.583Z,55.69
2023-01-08T09:08:40.730Z,55.29
2023-01-08T09:09:40.612Z,55.59
2023-01-08T09:10:41.484Z,55.69
2023-01-08T09:11:40.573Z,55.40
2023-01-08T09:12:40.585Z,55.29
2023-01-08T09:13:40.570Z,55.40
2023-01-08T09:14:41.462Z,55.49
2023-01-08T09:15:40.635Z,56.70
2023-01-08T09:16:41.334Z,56.70
2023-01-08T09:17:40.513Z,56.20
2023-01-08T09:18:41.237Z,56.77
2023-01-08T09:19:40.476Z,56.49
2023-01-08T09:20:40.538Z,56.29
2023-01-08T09:21:40.423Z,56.39
2023-01-08T09:22:40.570Z,56.59
2023-01-08T09:23:41.142Z,56.67
2023-01-08T09:24:40.459Z,56.67
2023-01-08T09:25:40.515Z,56.77
2023-01-08T09:26:40.578Z,57.17
2023-01-08T09:27:40.607Z,57.07
2023-01-08T09:28:40.528Z,56.87
2023-01-08T09:29:41.203Z,56.77
2023-01-08T09:30:41.239Z,56.77
2023-01-08T09:31:41.332Z,57.17
2023-01-08T09:32:40.452Z,56.87
2023-01-08T09:33:40.628Z,56.77
2023-01-08T09:34:40.344Z,56.77
2023-01-08T09:35:40.197Z,56.87
2023-01-08T09:36:40.364Z,56.77
2023-01-08T09:37:40.189Z,56.77
2023-01-08T09:38:40.171Z,56.67
2023-01-08T09:39:54.287Z,56.67
2023-01-08T09:40:41.517Z,56.77
2023-01-08T09:41:40.537Z,56.67
2023-01-08T09:42:40.228Z,56.67
2023-01-08T09:43:40.132Z,56.67
2023-01-08T09:44:40.143Z,56.67
2023-01-08T09:45:40.062Z,56.57
2023-01-08T09:46:40.295Z,56.57
2023-01-08T09:47:40.041Z,56.57
2023-01-08T09:48:40.844Z,56.57
2023-01-08T09:49:39.986Z,56.57
2023-01-08T09:50:40.054Z,56.57
2023-01-08T09:51:40.017Z,56.57
2023-01-08T09:52:42.167Z,56.57
2023-01-08T09:53:39.943Z,56.46
2023-01-08T09:54:39.998Z,56.46
2023-01-08T09:55:39.940Z,56.46
2023-01-08T09:56:39.952Z,56.46
2023-01-08T09:57:40.515Z,56.46
2023-01-08T09:58:40.143Z,56.46
2023-01-08T09:59:39.896Z,56.46
2023-01-08T10:00:39.956Z,56.37
2023-01-08T10:01:40.287Z,56.37
2023-01-08T10:02:39.988Z,56.46
2023-01-08T10:03:39.838Z,56.57
2023-01-08T10:04:40.040Z,56.46
2023-01-08T10:05:39.832Z,56.46
2023-01-08T10:06:39.877Z,56.37
2023-01-08T10:07:39.881Z,56.34
2023-01-08T10:08:39.779Z,56.16
2023-01-08T10:09:40.013Z,56.14
2023-01-08T10:10:39.983Z,56.04
2023-01-08T10:11:39.787Z,56.07
2023-01-08T10:12:39.704Z,56.04
2023-01-08T10:13:39.851Z,56.04
2023-01-08T10:14:39.726Z,56.04
2023-01-08T10:15:39.707Z,56.04
2023-01-08T10:16:39.907Z,56.04
2023-01-08T10:17:39.628Z,56.04
2023-01-08T10:18:39.698Z,56.14
2023-01-08T10:19:39.626Z,56.04
2023-01-08T10:20:39.666Z,56.14
2023-01-08T10:21:39.646Z,56.14
2023-01-08T10:22:39.755Z,56.14
2023-01-08T10:23:39.520Z,56.74
2023-01-08T10:24:39.560Z,57.64
2023-01-08T10:25:39.569Z,56.94
2023-01-08T10:26:39.530Z,57.04
2023-01-08T10:27:39.576Z,57.14
2023-01-08T10:28:39.812Z,57.14
2023-01-08T10:29:39.481Z,57.14
2023-01-08T10:30:39.456Z,57.04
2023-01-08T10:31:39.545Z,56.84
2023-01-08T10:32:39.437Z,56.54
2023-01-08T10:33:39.868Z,56.24
2023-01-08T10:34:39.813Z,55.94
2023-01-08T10:35:39.381Z,55.84
2023-01-08T10:36:39.443Z,55.14
2023-01-08T10:37:39.349Z,55.34
2023-01-08T10:38:39.410Z,56.34
2023-01-08T10:39:40.617Z,55.94
2023-01-08T10:40:39.398Z,56.04
2023-01-08T10:41:39.402Z,56.14
2023-01-08T10:42:40.058Z,56.24
2023-01-08T10:43:39.538Z,56.54
2023-01-08T10:44:39.293Z,56.64
2023-01-08T10:45:39.506Z,56.94
2023-01-08T10:46:39.327Z,56.94
2023-01-08T10:47:39.301Z,57.04
2023-01-08T10:48:39.835Z,57.04
2023-01-08T10:49:39.496Z,57.04
2023-01-08T10:50:39.237Z,57.14
2023-01-08T10:51:39.505Z,57.14
2023-01-08T10:52:39.228Z,57.24
2023-01-08T10:53:40.103Z,57.24
2023-01-08T10:54:39.153Z,57.34
2023-01-08T10:55:39.564Z,57.34
2023-01-08T10:56:40.094Z,57.34
2023-01-08T10:57:39.297Z,57.24
2023-01-08T10:58:39.116Z,57.24
2023-01-08T10:59:39.183Z,57.34
2023-01-08T11:00:39.138Z,57.34
2023-01-08T11:01:39.264Z,57.34
2023-01-08T11:02:39.637Z,57.34
2023-01-08T11:03:40.269Z,57.34
2023-01-08T11:04:39.116Z,57.34
2023-01-08T11:05:39.762Z,57.41
2023-01-08T11:06:39.023Z,57.44
2023-01-08T11:07:38.944Z,57.31
2023-01-08T11:08:39.952Z,57.44
2023-01-08T11:09:39.603Z,57.61
2023-01-08T11:10:39.319Z,57.81
2023-01-08T11:11:39.895Z,57.51
2023-01-08T11:12:39.009Z,57.51
2023-01-08T11:13:38.861Z,57.31
2023-01-08T11:14:39.216Z,57.41
2023-01-08T11:15:38.935Z,57.41
2023-01-08T11:16:39.908Z,57.41
2023-01-08T11:17:38.837Z,57.41
2023-01-08T11:18:39.030Z,57.41
2023-01-08T11:19:38.861Z,57.41
2023-01-08T11:20:38.801Z,57.31
2023-01-08T11:21:39.062Z,57.31
2023-01-08T11:22:39.552Z,57.41
2023-01-08T11:23:38.774Z,57.41
2023-01-08T11:24:38.760Z,57.41
2023-01-08T11:25:38.702Z,57.71
2023-01-08T11:26:38.711Z,57.61
2023-01-08T11:27:38.950Z,57.51
2023-01-08T11:28:38.692Z,57.41
2023-01-08T11:29:39.541Z,57.41
2023-01-08T11:30:39.688Z,57.31
2023-01-08T11:31:38.647Z,57.31
2023-01-08T11:32:38.655Z,57.21
2023-01-08T11:33:38.747Z,57.21
2023-01-08T11:34:39.089Z,57.21
2023-01-08T11:35:38.593Z,57.11
2023-01-08T11:36:38.549Z,57.21
2023-01-08T11:37:38.519Z,57.21
2023-01-08T11:38:38.556Z,57.21
2023-01-08T11:39:38.735Z,57.21
2023-01-08T11:40:38.601Z,57.21
2023-01-08T11:41:38.470Z,57.41
2023-01-08T11:42:38.761Z,57.31
2023-01-08T11:43:38.567Z,57.51
2023-01-08T11:44:39.226Z,57.31
2023-01-08T11:45:38.544Z,57.21
2023-01-08T11:46:38.682Z,57.21
2023-01-08T11:47:38.442Z,57.11
2023-01-08T11:48:38.525Z,57.11
2023-01-08T11:49:38.677Z,57.11
2023-01-08T11:50:38.353Z,57.11
2023-01-08T11:51:38.611Z,57.11
2023-01-08T11:52:38.390Z,57.21
2023-01-08T11:53:38.363Z,57.11
2023-01-08T11:54:38.323Z,57.11
2023-01-08T11:55:38.336Z,57.11
2023-01-08T11:56:38.277Z,57.21
2023-01-08T11:57:38.332Z,57.51
2023-01-08T11:58:38.292Z,57.61
2023-01-08T11:59:40.540Z,57.61
2023-01-08T12:00:38.282Z,57.51
2023-01-08T12:01:38.333Z,57.41
2023-01-08T12:02:38.276Z,57.31
2023-01-08T12:03:38.809Z,57.31
2023-01-08T12:04:38.216Z,57.21
2023-01-08T12:05:38.314Z,57.31
2023-01-08T12:06:38.163Z,57.41
2023-01-08T12:07:38.458Z,57.31
2023-01-08T12:08:38.864Z,57.31
2023-01-08T12:09:38.338Z,57.41
2023-01-08T12:10:38.140Z,57.31
2023-01-08T12:11:38.175Z,57.21
2023-01-08T12:12:38.067Z,57.31
2023-01-08T12:13:38.090Z,57.61
2023-01-08T12:14:38.828Z,57.98
2023-01-08T12:15:38.177Z,57.68
2023-01-08T12:16:38.117Z,57.41
2023-01-08T12:17:38.012Z,58.11
2023-01-08T12:18:38.106Z,57.81
2023-01-08T12:19:37.964Z,57.71
2023-01-08T12:20:38.001Z,57.48
2023-01-08T12:21:38.158Z,57.71
2023-01-08T12:22:38.073Z,57.71
2023-01-08T12:23:37.953Z,57.88
2023-01-08T12:24:37.960Z,58.01
2023-01-08T12:25:38.005Z,58.08
2023-01-08T12:26:37.955Z,58.11
2023-01-08T12:27:55.920Z,58.18
2023-01-08T12:28:39.246Z,58.08
2023-01-08T12:29:37.876Z,57.88
2023-01-08T12:30:37.971Z,57.78
2023-01-08T12:31:37.872Z,57.78
2023-01-08T12:32:37.816Z,57.48
2023-01-08T12:33:37.987Z,57.58
2023-01-08T12:34:38.791Z,57.28
2023-01-08T12:35:37.972Z,57.28
2023-01-08T12:36:37.909Z,57.18
2023-01-08T12:37:37.766Z,57.09
2023-01-08T12:38:37.850Z,56.98
2023-01-08T12:39:37.907Z,56.79
2023-01-08T12:40:37.867Z,56.68
2023-01-08T12:41:37.684Z,56.56
2023-01-08T12:42:37.702Z,56.46
2023-01-08T12:43:37.681Z,56.36
2023-01-08T12:44:37.785Z,56.36
2023-01-08T12:45:37.758Z,56.26
2023-01-08T12:46:37.638Z,56.06
2023-01-08T12:47:37.656Z,55.96
2023-01-08T12:48:37.733Z,55.96
2023-01-08T12:49:37.665Z,55.76
2023-01-08T12:50:37.518Z,55.76
2023-01-08T12:51:37.767Z,55.66
2023-01-08T12:52:37.528Z,55.66